Time;durP1;ratioP1;P1;durP2;ratioP2;P2;SDS_P1;SDS_P2;PMS_P1;PMS_P2;Temp;Humidity;BMP_temperature;BMP_pressure;BME280_temperature;BME280_humidity;BME280_pressure;Samples;Min_cycle;Max_cycle;Signal;HPM_P1;HPM_P2
2024/03/09 00:01:53;;;;;;;15.85;5.78;;;;;;;4.43;100.00;97752.16;5019346;28;20162;-61
2024/03/09 00:04:22;;;;;;;12.95;5.97;;;;;;;4.42;100.00;97750.50;5015668;28;20416;-61
2024/03/09 00:06:47;;;;;;;11.90;5.60;;;;;;;4.40;100.00;97755.19;5012696;28;20018;-61
2024/03/09 00:09:13;;;;;;;13.05;6.00;;;;;;;4.32;100.00;97752.66;5014501;28;20109;-61
2024/03/09 00:11:39;;;;;;;10.90;5.85;;;;;;;4.26;100.00;97748.06;5016889;28;20033;-61
2024/03/09 00:14:06;;;;;;;12.77;5.57;;;;;;;4.24;100.00;97755.44;5011956;28;20025;-62
2024/03/09 00:16:32;;;;;;;12.27;5.88;;;;;;;4.12;100.00;97747.91;5013949;28;20030;-62
2024/03/09 00:18:57;;;;;;;12.73;5.40;;;;;;;4.08;100.00;97754.63;5015413;28;20037;-62
2024/03/09 00:21:23;;;;;;;11.07;5.72;;;;;;;3.98;100.00;97742.56;5016370;28;20488;-61
2024/03/09 00:23:51;;;;;;;15.45;5.97;;;;;;;3.92;100.00;97741.47;5014635;28;20040;-61
2024/03/09 00:26:17;;;;;;;10.70;5.55;;;;;;;3.88;100.00;97764.28;5006630;28;20034;-62
2024/03/09 00:28:44;;;;;;;9.68;5.13;;;;;;;3.80;100.00;97756.34;5021606;28;20035;-61
2024/03/09 00:31:09;;;;;;;13.10;5.85;;;;;;;3.72;100.00;97759.94;5015770;28;20036;-61
2024/03/09 00:33:38;;;;;;;14.57;5.63;;;;;;;3.68;100.00;97769.38;5018463;28;20651;-61
2024/03/09 00:36:04;;;;;;;12.40;4.93;;;;;;;3.63;100.00;97764.56;5011147;28;20033;-61
2024/03/09 00:38:30;;;;;;;11.55;5.55;;;;;;;3.51;100.00;97768.72;5018919;28;20148;-61
2024/03/09 00:40:55;;;;;;;14.73;6.07;;;;;;;3.39;100.00;97762.19;5016217;28;20025;-61
2024/03/09 00:46:06;;;;;;;12.27;5.28;;;;;;;3.33;100.00;97757.53;5361142;22;20011;-59
2024/03/09 00:48:43;;;;;;;12.52;5.82;;;;;;;3.25;100.00;97761.97;5485313;22;20004;-53
2024/03/09 00:56:19;;;;;;;13.25;6.13;;;;;;;2.95;100.00;97730.88;3776336;22;20047;-53
2024/03/09 00:58:45;;;;;;;15.30;6.00;;;;;;;3.13;100.00;97760.75;5275011;22;20055;-51
2024/03/09 01:03:55;;;;;;;18.10;6.20;;;;;;;3.17;100.00;97755.88;5734920;22;20003;-54
2024/03/09 01:22:25;;;;;;;12.15;5.80;;;;;;;3.35;100.00;97710.06;5056735;28;20451;-50
2024/03/09 01:24:52;;;;;;;14.05;6.65;;;;;;;3.14;100.00;97706.28;5047467;28;20060;-50
2024/03/09 01:27:18;;;;;;;16.23;6.90;;;;;;;2.97;100.00;97707.47;5063539;28;20087;-51
2024/03/09 01:29:46;;;;;;;16.23;6.70;;;;;;;2.85;100.00;97707.91;5057842;28;20043;-51
2024/03/09 01:32:12;;;;;;;16.73;6.80;;;;;;;2.82;100.00;97718.94;5048645;28;20025;-51
2024/03/09 01:34:38;;;;;;;14.30;6.45;;;;;;;2.88;100.00;97711.22;5056247;28;20115;-51
2024/03/09 01:37:05;;;;;;;14.40;6.47;;;;;;;2.87;100.00;97712.25;5054790;28;20120;-54
2024/03/09 01:39:31;;;;;;;12.23;6.30;;;;;;;2.92;100.00;97720.56;5064926;28;20016;-51
2024/03/09 01:41:56;;;;;;;14.68;6.38;;;;;;;2.90;100.00;97726.06;5051890;28;20043;-51
2024/03/09 01:44:22;;;;;;;13.00;6.60;;;;;;;2.87;100.00;97730.94;5057444;28;20025;-51
2024/03/09 01:46:50;;;;;;;13.32;6.50;;;;;;;2.79;100.00;97724.66;5055531;28;20468;-51
2024/03/09 01:49:18;;;;;;;14.23;6.67;;;;;;;2.79;100.00;97732.69;5062659;28;20189;-51
2024/03/09 01:51:46;;;;;;;15.57;6.95;;;;;;;2.78;100.00;97716.84;5063026;28;20087;-51
2024/03/09 01:54:19;;;;;;;13.30;6.47;;;;;;;2.71;100.00;97722.06;5055593;28;20029;-51
2024/03/09 01:56:47;;;;;;;11.88;6.40;;;;;;;2.63;100.00;97719.47;5056043;28;20024;-51
2024/03/09 01:59:13;;;;;;;14.32;6.57;;;;;;;2.67;100.00;97726.09;5064098;28;20013;-51
2024/03/09 02:01:39;;;;;;;11.73;6.20;;;;;;;2.73;100.00;97724.56;5059269;28;20028;-51
2024/03/09 02:04:09;;;;;;;14.52;6.35;;;;;;;2.72;100.00;97720.22;5047982;28;20428;-51
2024/03/09 02:06:34;;;;;;;14.43;6.43;;;;;;;2.68;100.00;97725.09;5057525;28;20071;-51
2024/03/09 02:09:07;;;;;;;13.80;6.60;;;;;;;2.73;100.00;97719.22;5083971;23;20037;-77
2024/03/09 02:11:36;;;;;;;13.15;6.03;;;;;;;2.56;100.00;97705.16;5057461;28;20037;-78
2024/03/09 02:14:03;;;;;;;13.15;6.38;;;;;;;2.56;100.00;97702.50;5056142;28;20025;-79
2024/03/09 02:16:29;;;;;;;14.70;6.47;;;;;;;2.53;100.00;97708.19;5058851;28;20358;-80
2024/03/09 02:18:55;;;;;;;13.88;6.47;;;;;;;2.53;100.00;97702.84;5052315;28;20013;-78
2024/03/09 02:21:21;;;;;;;14.85;6.72;;;;;;;2.64;100.00;97708.59;5041500;28;20044;-78
2024/03/09 02:23:50;;;;;;;16.85;7.20;;;;;;;2.52;100.00;97702.03;5048161;28;20013;-80
2024/03/09 02:26:16;;;;;;;;;;;;;;;2.53;100.00;97713.53;5046777;28;20024;-78
2024/03/09 02:28:54;;;;;;;16.00;6.53;;;;;;;2.63;100.00;97703.44;5057283;28;19909;-77
2024/03/09 02:31:21;;;;;;;14.45;6.72;;;;;;;2.57;100.00;97688.16;5041859;28;20028;-78
2024/03/09 02:33:51;;;;;;;15.35;6.97;;;;;;;2.64;100.00;97689.06;5045740;28;20067;-78
2024/03/09 02:36:22;;;;;;;15.95;6.00;;;;;;;2.67;100.00;97680.69;5048493;28;20029;-78
2024/03/09 02:38:48;;;;;;;14.93;7.05;;;;;;;2.74;100.00;97681.63;5034726;28;20076;-78
2024/03/09 02:41:13;;;;;;;13.38;6.30;;;;;;;2.54;100.00;97656.44;5050823;28;20021;-78
2024/03/09 02:43:38;;;;;;;14.77;7.20;;;;;;;2.66;100.00;97680.88;5066526;28;20108;-77
2024/03/09 02:46:04;;;;;;;17.77;7.07;;;;;;;2.72;100.00;97694.34;5047125;28;20020;-78
2024/03/09 02:48:29;;;;;;;13.25;6.47;;;;;;;2.47;100.00;97674.22;5042244;28;20026;-76
2024/03/09 02:50:56;;;;;;;14.25;6.85;;;;;;;2.50;100.00;97681.88;5058580;28;20071;-77
2024/03/09 02:53:21;;;;;;;17.67;7.57;;;;;;;2.42;100.00;97672.91;5050947;28;20069;-78
2024/03/09 02:55:46;;;;;;;13.00;6.80;;;;;;;2.51;100.00;97686.19;5058640;28;20087;-77
2024/03/09 02:58:12;;;;;;;13.02;6.32;;;;;;;2.39;100.00;97664.44;5043627;28;20017;-77
2024/03/09 03:00:37;;;;;;;16.08;6.85;;;;;;;2.67;100.00;97688.72;5046828;28;20037;-78
2024/03/09 03:05:47;;;;;;;14.82;6.72;;;;;;;2.62;100.00;97659.91;5063005;28;20040;-77
2024/03/09 03:08:13;;;;;;;18.35;7.38;;;;;;;2.85;100.00;97678.50;5038873;28;20021;-77
2024/03/09 03:10:40;;;;;;;16.60;6.15;;;;;;;2.67;100.00;97647.81;5061466;28;20091;-78
2024/03/09 03:13:07;;;;;;;16.23;6.63;;;;;;;2.70;100.00;97659.00;5058918;28;20083;-77
2024/03/09 03:15:32;;;;;;;13.05;6.75;;;;;;;2.67;100.00;97671.84;5062205;28;20325;-77
2024/03/09 03:17:57;;;;;;;16.42;7.25;;;;;;;2.58;100.00;97647.09;5049267;28;20020;-77
2024/03/09 03:20:22;;;;;;;13.55;6.25;;;;;;;2.87;100.00;97682.88;5048910;28;20021;-77
2024/03/09 03:22:50;;;;;;;14.65;7.35;;;;;;;2.73;100.00;97666.63;5043896;28;20325;-77
2024/03/09 03:25:16;;;;;;;15.02;6.75;;;;;;;2.68;100.00;97653.00;5058039;28;20016;-78
2024/03/09 03:27:43;;;;;;;12.45;6.15;;;;;;;2.89;100.00;97678.19;5036589;28;20040;-77
2024/03/09 03:30:09;;;;;;;14.07;6.82;;;;;;;2.54;100.00;97625.25;5052139;28;20008;-77
2024/03/09 03:32:36;;;;;;;15.00;6.50;;;;;;;2.61;100.00;97636.03;5041000;28;20030;-78
2024/03/09 03:35:04;;;;;;;12.80;6.32;;;;;;;2.68;100.00;97626.28;5068930;28;20335;-77
2024/03/09 03:37:31;;;;;;;13.95;6.85;;;;;;;2.88;100.00;97655.13;5042550;28;20105;-77
2024/03/09 03:39:57;;;;;;;13.02;6.35;;;;;;;2.93;100.00;97650.88;5047629;28;20320;-77
2024/03/09 03:42:23;;;;;;;12.65;6.47;;;;;;;2.87;100.00;97632.13;5040541;28;20029;-77
2024/03/09 03:44:48;;;;;;;13.98;6.30;;;;;;;2.96;100.00;97639.00;5050226;28;20062;-78
2024/03/09 03:47:13;;;;;;;15.43;6.60;;;;;;;2.79;100.00;97604.47;5044229;28;20017;-78
2024/03/09 03:49:39;;;;;;;13.57;6.28;;;;;;;2.75;100.00;97595.19;5052294;28;20016;-78
2024/03/09 03:52:04;;;;;;;14.80;7.00;;;;;;;2.80;100.00;97582.09;5058715;28;20383;-77
2024/03/09 03:54:30;;;;;;;18.77;7.60;;;;;;;3.08;100.00;97610.81;5065873;28;20029;-77
2024/03/09 03:56:56;;;;;;;15.57;7.45;;;;;;;3.14;100.00;97596.72;5041959;28;20016;-77
2024/03/09 03:59:21;;;;;;;15.70;7.57;;;;;;;3.35;100.00;97595.94;5056417;28;20009;-77
2024/03/09 04:01:46;;;;;;;13.70;6.55;;;;;;;3.45;100.00;97614.38;5062546;28;20050;-77
2024/03/09 04:04:12;;;;;;;15.27;6.72;;;;;;;2.92;100.00;97611.84;5045044;28;20328;-77
2024/03/09 04:06:44;;;;;;;13.88;7.32;;;;;;;2.45;100.00;97613.00;5047195;28;20025;-78
2024/03/09 04:09:13;;;;;;;14.35;7.00;;;;;;;2.39;100.00;97625.22;5073226;28;20062;-78
2024/03/09 04:11:38;;;;;;;18.45;7.63;;;;;;;2.24;100.00;97600.34;5037153;28;20025;-78
2024/03/09 04:14:04;;;;;;;18.42;7.93;;;;;;;2.33;100.00;97623.28;5050214;28;20035;-78
2024/03/09 04:16:30;;;;;;;14.40;7.28;;;;;;;2.37;100.00;97608.56;5056411;28;20032;-77
2024/03/09 04:18:55;;;;;;;16.80;8.25;;;;;;;2.52;100.00;97605.09;5047975;28;20362;-77
2024/03/09 04:21:20;;;;;;;16.88;8.15;;;;;;;2.71;100.00;97607.22;5042676;28;20020;-77
2024/03/09 04:23:46;;;;;;;21.33;8.10;;;;;;;2.70;100.00;97567.34;5044704;28;20032;-78
2024/03/09 04:26:11;;;;;;;18.98;8.05;;;;;;;3.01;100.00;97585.84;5050657;28;20033;-78
2024/03/09 04:28:37;;;;;;;15.68;7.90;;;;;;;3.21;100.00;97591.47;5035180;28;20193;-78
2024/03/09 04:31:03;;;;;;;20.17;8.40;;;;;;;3.26;100.00;97581.88;5046485;28;20657;-77
2024/03/09 04:33:29;;;;;;;15.73;8.13;;;;;;;3.29;100.00;97575.31;5056323;28;20087;-77
2024/03/09 04:35:54;;;;;;;23.92;8.48;;;;;;;3.22;100.00;97542.34;5042420;28;20035;-77
2024/03/09 04:38:20;;;;;;;21.55;8.23;;;;;;;3.43;100.00;97565.59;5040026;28;20259;-77
2024/03/09 04:40:48;;;;;;;16.63;7.60;;;;;;;3.34;100.00;97540.84;5027573;28;20023;-78
2024/03/09 04:43:14;;;;;;;18.77;7.90;;;;;;;3.59;100.00;97565.41;5048266;28;20320;-77
2024/03/09 04:45:40;;;;;;;20.30;9.18;;;;;;;3.49;100.00;97533.59;5062554;28;20039;-78
2024/03/09 04:48:06;;;;;;;17.75;7.95;;;;;;;3.43;100.00;97534.38;5047122;28;20024;-78
2024/03/09 04:50:33;;;;;;;17.77;8.80;;;;;;;3.62;100.00;97535.59;5052303;28;20036;-84
2024/03/09 04:52:58;;;;;;;18.95;8.65;;;;;;;3.43;100.00;97512.97;5031855;28;20323;-83
2024/03/09 04:55:27;;;;;;;16.40;8.38;;;;;;;3.64;100.00;97536.25;5039614;28;20041;-82
2024/03/09 04:57:59;;;;;;;17.40;8.40;;;;;;;3.69;100.00;97528.47;5039067;28;20029;-82
2024/03/09 05:00:31;;;;;;;21.73;8.98;;;;;;;3.79;100.00;97543.34;5043641;28;20024;-82
2024/03/09 05:02:56;;;;;;;16.40;8.20;;;;;;;3.76;100.00;97544.56;5038199;28;20031;-82
2024/03/09 05:05:22;;;;;;;20.08;8.80;;;;;;;3.67;100.00;97537.69;5053793;28;20044;-82
2024/03/09 05:07:49;;;;;;;18.58;8.52;;;;;;;3.72;100.00;97545.94;5062235;28;20032;-82
2024/03/09 05:10:17;;;;;;;20.25;9.25;;;;;;;3.64;100.00;97535.38;5048557;28;20017;-82
2024/03/09 05:12:56;;;;;;;20.90;8.70;;;;;;;3.68;100.00;97534.81;5046892;28;20063;-85
2024/03/09 05:15:25;;;;;;;18.55;9.30;;;;;;;3.89;100.00;97551.91;5038542;28;20056;-82
2024/03/09 05:17:54;;;;;;;19.05;8.65;;;;;;;3.91;100.00;97556.03;5060108;28;20032;-84
2024/03/09 05:20:22;;;;;;;20.55;8.80;;;;;;;3.94;100.00;97552.16;5047198;28;20217;-86
2024/03/09 05:22:49;;;;;;;17.15;7.88;;;;;;;4.08;100.00;97579.84;5051147;28;20029;-86
2024/03/09 05:25:14;;;;;;;18.52;7.97;;;;;;;3.72;100.00;97520.06;5045908;28;20220;-81
2024/03/09 05:27:44;;;;;;;19.25;8.50;;;;;;;3.94;100.00;97555.66;5046526;28;20028;-80
2024/03/09 05:30:18;;;;;;;;;;;;;;;4.13;100.00;97564.03;5045557;28;20071;-81
2024/03/09 05:32:53;;;;;;;20.23;8.38;;;;;;;3.99;100.00;97549.72;5046988;28;19917;-86
2024/03/09 05:35:23;;;;;;;17.90;8.73;;;;;;;3.99;100.00;97539.03;5051249;28;20385;-79
2024/03/09 05:37:49;;;;;;;20.45;9.18;;;;;;;4.03;100.00;97537.59;5047513;28;20028;-82
2024/03/09 05:40:16;;;;;;;19.75;9.75;;;;;;;4.08;100.00;97516.44;5063748;28;20025;-86
2024/03/09 05:42:43;;;;;;;21.67;9.38;;;;;;;4.05;100.00;97495.41;5063557;28;20324;-79
2024/03/09 05:45:15;;;;;;;20.65;9.35;;;;;;;4.22;100.00;97490.63;5060676;28;20020;-81
2024/03/09 05:47:45;;;;;;;22.45;9.70;;;;;;;4.29;100.00;97498.69;5047748;28;20032;-81
2024/03/09 05:50:10;;;;;;;22.38;9.65;;;;;;;4.28;100.00;97487.16;5046468;28;20027;-81
2024/03/09 05:52:35;;;;;;;22.13;10.18;;;;;;;4.46;100.00;97496.53;5056210;28;20033;-81
2024/03/09 05:55:01;;;;;;;21.50;9.27;;;;;;;4.35;100.00;97468.47;5053981;28;20009;-81
2024/03/09 05:57:27;;;;;;;18.38;9.38;;;;;;;4.47;100.00;97488.28;5055909;28;20037;-78
2024/03/09 05:59:52;;;;;;;20.52;9.80;;;;;;;4.50;100.00;97492.44;5042368;28;20018;-79
2024/03/09 06:02:17;;;;;;;20.40;10.05;;;;;;;4.43;100.00;97454.91;5056833;28;20044;-80
2024/03/09 06:04:43;;;;;;;22.92;10.50;;;;;;;4.61;100.00;97454.38;5055107;28;20044;-80
2024/03/09 06:07:08;;;;;;;21.50;11.25;;;;;;;4.61;100.00;97433.78;5061190;28;20366;-79
2024/03/09 06:09:33;;;;;;;20.63;9.07;;;;;;;4.63;100.00;97414.00;5040384;28;20096;-79
2024/03/09 06:11:59;;;;;;;20.17;8.57;;;;;;;4.91;100.00;97448.75;5056300;28;20024;-79
2024/03/09 06:14:26;;;;;;;24.20;9.00;;;;;;;4.83;100.00;97422.94;5054731;28;20029;-79
2024/03/09 06:16:52;;;;;;;18.85;9.38;;;;;;;4.77;100.00;97416.53;5039161;28;20025;-79
2024/03/09 06:19:18;;;;;;;16.42;7.75;;;;;;;5.01;100.00;97447.34;5055145;28;20231;-79
2024/03/09 06:21:44;;;;;;;19.15;9.13;;;;;;;4.97;100.00;97431.84;5059186;28;20025;-77
2024/03/09 06:24:10;;;;;;;17.17;8.02;;;;;;;4.59;100.00;97379.59;5044371;28;20026;-83
2024/03/09 06:26:36;;;;;;;18.90;8.90;;;;;;;5.08;100.00;97460.75;5039717;28;20216;-78
2024/03/09 06:29:02;;;;;;;20.67;9.82;;;;;;;5.24;100.00;97468.44;5038782;28;20092;-79
2024/03/09 06:31:27;;;;;;;20.85;9.85;;;;;;;5.25;100.00;97445.13;5059555;28;20033;-76
2024/03/09 06:33:52;;;;;;;18.67;9.50;;;;;;;5.33;100.00;97457.53;5041306;28;20029;-79
2024/03/09 06:36:18;;;;;;;18.77;9.23;;;;;;;5.58;100.00;97445.19;5054836;28;20101;-81
2024/03/09 06:38:44;;;;;;;18.77;8.90;;;;;;;5.99;100.00;97503.25;5060225;28;20373;-81
2024/03/09 06:41:12;;;;;;;18.73;8.75;;;;;;;5.78;100.00;97453.25;5050408;28;20050;-80
2024/03/09 06:43:37;;;;;;;21.50;9.50;;;;;;;6.19;100.00;97489.81;5061726;28;20028;-80
2024/03/09 06:46:03;;;;;;;21.75;9.98;;;;;;;6.24;100.00;97478.47;5047779;28;20099;-80
2024/03/09 06:48:29;;;;;;;17.80;8.93;;;;;;;5.99;100.00;97470.22;5055972;28;20020;-80
2024/03/09 06:50:55;;;;;;;15.93;8.23;;;;;;;6.55;100.00;97527.00;5057475;28;20021;-79
2024/03/09 06:53:24;;;;;;;18.17;9.50;;;;;;;7.17;100.00;97505.91;5071568;28;20020;-80
2024/03/09 06:55:50;;;;;;;20.05;8.95;;;;;;;8.25;100.00;97523.91;5066985;28;20220;-80
2024/03/09 06:58:15;;;;;;;20.83;9.30;;;;;;;10.73;100.00;97480.72;5053308;28;20021;-81
2024/03/09 07:00:41;;;;;;;12.98;7.53;;;;;;;13.67;100.00;97504.34;5047741;28;20328;-81
2024/03/09 07:03:06;;;;;;;15.15;8.40;;;;;;;16.14;81.28;97492.00;5067446;28;20028;-78
2024/03/09 07:05:34;;;;;;;20.17;8.20;;;;;;;16.50;73.85;97530.22;5067552;28;20406;-79
2024/03/09 07:07:59;;;;;;;15.65;8.48;;;;;;;16.03;71.97;97529.34;5038237;28;20079;-80
2024/03/09 07:10:27;;;;;;;13.27;7.30;;;;;;;17.08;68.23;97544.38;5045819;28;20040;-77
2024/03/09 07:12:52;;;;;;;13.93;7.57;;;;;;;17.67;65.73;97532.72;5050868;28;20056;-79
2024/03/09 07:15:18;;;;;;;14.05;7.95;;;;;;;16.46;65.26;97501.84;5060140;28;20016;-79
2024/03/09 07:17:45;;;;;;;13.90;7.45;;;;;;;17.00;64.69;97544.94;5063445;28;20028;-79
2024/03/09 07:20:11;;;;;;;14.43;7.88;;;;;;;14.87;67.34;97539.44;5064071;28;20008;-79
2024/03/09 07:22:39;;;;;;;15.40;8.52;;;;;;;12.12;75.56;97551.22;5058589;28;20215;-79
2024/03/09 07:25:05;;;;;;;14.90;8.73;;;;;;;10.28;95.31;97532.69;5064066;28;20304;-79
2024/03/09 07:27:30;;;;;;;19.85;8.38;;;;;;;9.57;100.00;97525.41;5060989;28;20045;-79
2024/03/09 07:29:55;;;;;;;15.95;8.90;;;;;;;9.30;100.00;97501.47;5054679;28;20316;-79
2024/03/09 07:32:22;;;;;;;16.30;8.13;;;;;;;9.03;100.00;97556.78;5063000;28;20029;-79
2024/03/09 07:34:47;;;;;;;21.63;10.45;;;;;;;8.81;100.00;97500.56;5040036;28;20033;-79
2024/03/09 07:37:13;;;;;;;19.90;9.18;;;;;;;11.21;100.00;97515.84;5062680;28;20021;-77
2024/03/09 07:39:38;;;;;;;16.15;8.20;;;;;;;12.80;98.55;97486.94;5046289;28;20029;-77
2024/03/09 07:42:04;;;;;;;15.35;7.95;;;;;;;14.49;84.91;97535.88;5058349;28;20052;-77
2024/03/09 07:44:31;;;;;;;16.20;8.68;;;;;;;15.49;77.70;97513.34;5040734;28;20040;-77
2024/03/09 07:46:56;;;;;;;15.98;8.27;;;;;;;15.85;73.92;97516.19;5060140;28;20021;-77
2024/03/09 07:49:22;;;;;;;16.30;9.13;;;;;;;17.80;66.43;97525.03;5058979;28;20103;-77
2024/03/09 07:51:48;;;;;;;16.40;8.25;;;;;;;18.07;62.90;97494.50;5045903;28;20074;-76
2024/03/09 07:54:13;;;;;;;15.13;8.50;;;;;;;20.31;56.02;97499.47;5052908;28;20056;-76
2024/03/09 07:56:39;;;;;;;11.77;7.80;;;;;;;20.64;53.72;97505.00;5046362;28;20040;-77
2024/03/09 07:59:07;;;;;;;11.18;7.47;;;;;;;24.32;48.75;97514.72;5034079;28;20252;-77
2024/03/09 08:01:32;;;;;;;14.98;8.98;;;;;;;23.58;44.68;97507.25;5054311;28;20034;-76
2024/03/09 08:03:58;;;;;;;12.98;8.18;;;;;;;23.00;46.68;97509.09;5033127;28;20079;-76
2024/03/09 08:06:23;;;;;;;13.20;7.90;;;;;;;24.34;44.28;97506.09;5038735;28;20040;-76
2024/03/09 08:08:48;;;;;;;12.20;7.95;;;;;;;25.32;43.31;97538.53;5057192;23;20095;-76
2024/03/09 08:11:16;;;;;;;13.32;7.53;;;;;;;26.65;41.62;97533.56;5085898;28;20012;-76
2024/03/09 08:13:42;;;;;;;12.18;8.25;;;;;;;25.87;40.67;97534.09;5065712;28;20044;-76
2024/03/09 08:16:07;;;;;;;13.65;8.43;;;;;;;24.54;41.94;97538.66;5102000;28;20056;-76
2024/03/09 08:18:32;;;;;;;13.55;9.02;;;;;;;24.23;42.70;97539.59;5085907;28;20054;-76
2024/03/09 08:20:58;;;;;;;13.52;8.00;;;;;;;24.29;42.85;97529.19;5094329;28;20024;-76
2024/03/09 08:23:23;;;;;;;11.95;8.00;;;;;;;23.56;43.41;97537.13;5085642;28;20315;-76
2024/03/09 08:25:49;;;;;;;12.38;8.43;;;;;;;24.21;43.74;97528.06;5086335;28;20335;-76
2024/03/09 08:28:14;;;;;;;12.80;8.68;;;;;;;24.73;43.20;97529.19;5086839;28;20243;-76
2024/03/09 08:30:40;;;;;;;14.40;8.38;;;;;;;23.95;43.56;97539.06;5090429;28;20092;-76
2024/03/09 08:33:06;;;;;;;13.80;8.98;;;;;;;23.40;44.31;97537.56;5089305;28;20374;-76
2024/03/09 08:35:33;;;;;;;10.90;8.40;;;;;;;23.94;44.08;97537.41;5084166;28;20032;-76
2024/03/09 08:37:58;;;;;;;10.55;7.80;;;;;;;25.84;43.14;97528.38;5083788;28;20024;-76
2024/03/09 08:40:25;;;;;;;12.02;8.15;;;;;;;26.27;40.73;97519.00;5089164;28;20508;-76
2024/03/09 08:42:54;;;;;;;12.02;8.52;;;;;;;25.79;41.72;97510.00;5086482;28;20065;-76
2024/03/09 08:45:21;;;;;;;11.25;8.70;;;;;;;26.12;40.86;97503.75;5080622;28;20028;-76
2024/03/09 08:47:47;;;;;;;11.32;8.20;;;;;;;26.80;40.11;97496.06;5081612;28;20384;-75
2024/03/09 08:50:12;;;;;;;11.20;8.20;;;;;;;26.51;39.68;97490.56;5081329;28;20116;-76
2024/03/09 08:52:39;;;;;;;11.95;8.32;;;;;;;27.21;39.18;97499.06;5081428;28;20028;-75
2024/03/09 08:55:10;;;;;;;11.15;8.05;;;;;;;28.38;38.91;97493.69;5065557;28;20032;-75
2024/03/09 08:57:39;;;;;;;11.88;8.18;;;;;;;29.10;37.59;97490.16;5078772;28;20126;-75
2024/03/09 09:00:06;;;;;;;10.27;7.68;;;;;;;29.13;36.66;97510.91;5081717;28;20027;-75
2024/03/09 09:02:32;;;;;;;11.18;8.30;;;;;;;27.85;36.86;97506.75;5072027;28;20016;-76
2024/03/09 09:04:58;;;;;;;10.07;8.40;;;;;;;26.99;38.15;97508.59;5073806;28;20044;-75
2024/03/09 09:07:23;;;;;;;10.88;8.00;;;;;;;27.59;38.18;97500.69;5074710;28;20332;-75
2024/03/09 09:09:50;;;;;;;10.43;7.88;;;;;;;29.02;37.33;97491.09;5075660;28;20091;-75
2024/03/09 09:12:17;;;;;;;10.90;8.18;;;;;;;28.07;37.63;97505.44;5080560;28;20028;-75
2024/03/09 09:14:44;;;;;;;10.13;8.27;;;;;;;28.64;36.32;97500.81;5075799;28;20252;-75
2024/03/09 09:17:10;;;;;;;10.70;8.73;;;;;;;28.93;35.92;97498.81;5076081;28;20024;-75
2024/03/09 09:19:37;;;;;;;10.73;8.20;;;;;;;30.40;35.68;97494.09;5082251;28;20031;-75
2024/03/09 09:22:03;;;;;;;11.80;8.15;;;;;;;28.84;35.91;97501.75;5080129;28;20070;-75
2024/03/09 09:24:29;;;;;;;11.38;7.63;;;;;;;29.65;35.98;97498.72;5079260;28;20028;-75
2024/03/09 09:26:54;;;;;;;9.55;7.53;;;;;;;31.88;34.19;97488.03;5077079;28;20389;-76
2024/03/09 09:29:19;;;;;;;10.02;7.68;;;;;;;32.13;33.75;97491.25;5061186;28;20024;-75
2024/03/09 09:31:45;;;;;;;10.70;7.13;;;;;;;31.30;33.09;97469.50;5079412;28;20031;-75
2024/03/09 09:34:13;;;;;;;11.83;7.90;;;;;;;31.66;32.88;97473.72;5084431;28;20574;-79
2024/03/09 09:36:38;;;;;;;8.05;6.97;;;;;;;32.58;32.94;97463.47;5085047;28;20327;-74
2024/03/09 09:39:04;;;;;;;12.20;8.00;;;;;;;32.51;33.38;97462.19;5077192;28;20312;-77
2024/03/09 09:41:29;;;;;;;10.48;8.10;;;;;;;30.90;32.77;97454.03;5082683;28;20035;-76
2024/03/09 09:43:58;;;;;;;9.55;8.05;;;;;;;31.17;33.24;97449.31;5085399;28;20032;-76
2024/03/09 09:46:29;;;;;;;12.10;8.30;;;;;;;30.06;33.75;97447.09;5076971;28;20090;-77
2024/03/09 09:48:55;;;;;;;11.38;8.68;;;;;;;31.84;32.35;97445.25;5077062;28;20040;-78
2024/03/09 09:51:25;;;;;;;9.73;7.45;;;;;;;34.07;31.94;97440.00;5085790;28;20029;-75
2024/03/09 09:53:53;;;;;;;10.57;7.78;;;;;;;35.36;30.63;97435.59;5078955;28;20098;-78
2024/03/09 09:56:20;;;;;;;10.85;8.38;;;;;;;31.59;32.05;97445.66;5062814;28;20044;-78
2024/03/09 09:58:47;;;;;;;10.38;8.70;;;;;;;28.94;35.03;97439.97;5066709;28;20227;-78
2024/03/09 10:01:12;;;;;;;8.90;8.00;;;;;;;29.51;34.50;97437.84;5068292;28;20031;-78
2024/03/09 10:03:37;;;;;;;11.17;8.47;;;;;;;30.78;33.40;97423.44;5081224;28;20036;-81
2024/03/09 10:06:17;;;;;;;10.88;8.70;;;;;;;31.24;33.35;97403.94;5063739;28;20279;-77
2024/03/09 10:08:52;;;;;;;9.68;7.90;;;;;;;31.30;32.95;97412.81;5082135;28;20383;-77
2024/03/09 10:11:20;;;;;;;9.38;7.90;;;;;;;32.81;32.62;97410.91;5080079;28;20024;-77
2024/03/09 10:13:46;;;;;;;10.20;8.18;;;;;;;32.19;32.34;97407.75;5079479;28;20130;-77
2024/03/09 10:16:15;;;;;;;10.55;8.68;;;;;;;32.47;31.68;97396.94;5086782;28;20028;-76
2024/03/09 10:18:41;;;;;;;10.00;7.90;;;;;;;31.51;33.05;97407.59;5073601;28;20047;-76
2024/03/09 10:21:08;;;;;;;9.48;8.45;;;;;;;32.02;32.67;97398.75;5086130;28;20043;-79
2024/03/09 10:23:34;;;;;;;11.60;8.40;;;;;;;32.37;32.02;97391.19;5068756;28;20021;-82
2024/03/09 10:26:09;;;;;;;10.10;7.88;;;;;;;32.63;32.55;97387.50;5084339;28;20324;-75
2024/03/09 10:28:36;;;;;;;10.43;8.70;;;;;;;32.00;31.47;97389.94;5080953;28;20024;-75
2024/03/09 10:31:03;;;;;;;11.55;8.35;;;;;;;32.41;31.68;97386.41;5078405;28;20058;-75
2024/03/09 10:33:32;;;;;;;12.05;9.27;;;;;;;31.40;31.51;97392.66;5089734;28;20192;-75
2024/03/09 10:35:59;;;;;;;10.88;8.38;;;;;;;32.15;32.17;97398.50;5081047;28;20036;-75
2024/03/09 10:38:28;;;;;;;9.80;8.38;;;;;;;31.92;32.16;97391.00;5080673;28;20036;-74
2024/03/09 10:40:57;;;;;;;10.43;8.30;;;;;;;30.74;32.98;97389.09;5079788;28;20043;-74
2024/03/09 10:43:22;;;;;;;11.32;8.80;;;;;;;31.58;32.52;97396.50;5083763;28;20343;-75
2024/03/09 10:45:51;;;;;;;12.65;9.50;;;;;;;30.94;32.48;97387.06;5087510;28;20069;-79
2024/03/09 10:48:20;;;;;;;10.68;8.52;;;;;;;30.58;32.95;97361.28;5069414;28;20020;-79
2024/03/09 10:50:54;;;;;;;12.63;8.43;;;;;;;32.78;32.35;97364.06;5068766;28;20024;-80
2024/03/09 10:53:48;;;;;;;12.50;8.55;;;;;;;34.59;31.30;97362.03;5088622;28;20243;-80
2024/03/09 10:56:21;;;;;;;11.43;8.52;;;;;;;34.37;30.41;97358.31;5074066;28;20020;-80
2024/03/09 10:58:50;;;;;;;13.02;8.00;;;;;;;34.87;29.75;97342.41;5096510;28;20088;-77
2024/03/09 11:01:19;;;;;;;12.70;8.52;;;;;;;33.59;30.54;97351.13;5086933;28;20048;-80
2024/03/09 11:03:49;;;;;;;12.10;8.43;;;;;;;31.35;32.20;97359.41;5086130;28;20066;-78
2024/03/09 11:06:17;;;;;;;13.23;9.18;;;;;;;30.57;32.36;97345.69;5084341;28;20020;-76
2024/03/09 11:08:43;;;;;;;;;;;;;;;31.96;32.75;97337.91;5091864;28;20020;-76
2024/03/09 11:11:09;;;;;;;12.88;8.88;;;;;;;33.05;31.87;97316.28;5084025;28;19979;-77
2024/03/09 11:13:34;;;;;;;10.52;8.00;;;;;;;33.85;32.02;97316.38;5085135;28;20024;-76
2024/03/09 11:16:00;;;;;;;9.88;7.32;;;;;;;34.16;31.79;97303.69;5080812;28;20262;-76
2024/03/09 11:18:25;;;;;;;9.40;7.70;;;;;;;34.71;30.80;97304.66;5085219;28;20024;-77
2024/03/09 11:20:54;;;;;;;10.25;8.10;;;;;;;33.95;31.34;97295.97;5083119;28;20286;-76
2024/03/09 11:23:22;;;;;;;13.77;8.57;;;;;;;34.21;31.18;97289.28;5081406;28;20025;-76
2024/03/09 11:25:51;;;;;;;11.13;7.40;;;;;;;35.93;30.46;97283.59;5085118;28;20114;-77
2024/03/09 11:28:20;;;;;;;9.13;8.02;;;;;;;34.12;31.14;97285.28;5088731;28;20032;-76
2024/03/09 11:31:10;;;;;;;10.55;8.52;;;;;;;32.97;31.90;97282.56;5091069;28;20024;-76
2024/03/09 11:33:51;;;;;;;10.40;8.13;;;;;;;31.96;33.01;97293.97;5084024;28;20360;-76
2024/03/09 11:36:42;;;;;;;9.73;7.97;;;;;;;32.63;32.38;97281.09;5070065;28;20078;-75
2024/03/09 11:39:08;;;;;;;9.70;7.78;;;;;;;32.34;32.65;97272.41;5081896;28;20083;-75
2024/03/09 11:41:38;;;;;;;10.98;7.90;;;;;;;31.82;32.94;97265.81;5085393;28;20051;-75
2024/03/09 11:44:06;;;;;;;9.30;7.05;;;;;;;32.67;32.78;97270.72;5082891;28;20024;-75
2024/03/09 11:46:36;;;;;;;9.73;7.63;;;;;;;33.98;31.23;97260.72;5080090;28;20044;-75
2024/03/09 11:49:05;;;;;;;8.80;7.32;;;;;;;33.25;31.93;97250.38;5081624;28;20044;-74
2024/03/09 11:51:33;;;;;;;9.13;7.60;;;;;;;34.03;30.85;97249.09;5079114;28;20028;-75
2024/03/09 11:54:02;;;;;;;;;;;;;;;34.11;31.49;97261.97;5084883;28;20024;-74
2024/03/09 11:56:29;;;;;;;8.20;7.30;;;;;;;34.57;31.29;97244.44;5077033;28;19935;-75